»·PEaware :: N74201 4S2-S40

N74201 :: 4S2-S40

FLIGHT INFORMATION

Flight Status: Arrived
Operator: Privately registered:
United States
More flights under this callsign
Pilot: Jeff W. (31011)
Aircraft: CESSNA 172 SKYHAWK
(C172)
More flights by this aircraft type
Origin: 4S2 Hood River
United States
Destination: S40 Prosser
United States
More flights between these airports :: More routes between these airports
Route: S20
File this flight plan on PilotEdge
Remarks: Group flight
Altitude:
(Current/Filed)
9,500ft
Speed:
(Current/Filed)
114kts
Departed: 09-Jan-21 08:24 AM
Arrived: 09-Jan-21 09:22 AM
Distance/Time
Traveled:
86nm/0:58
Distance/Time
To Go:
Arrived

Flight Plot

Page will automatically refresh every two minutes.

Flight plan parsing failed; only flown route is shown


Map Options




Map Legend


Flown Route
Filed Route
Departure Airport
Arrival Airport
Navaid (VOR, NDB)
Fix

Horizontal Profiles

Position Reports

Time Latitude Longitude Heading Altitude Ground
Speed
09-Jan-21 07:37 45.673648 -121.541139 0 634ft 0kts
09-Jan-21 07:38 45.673648 -121.541139 0 634ft 0kts
09-Jan-21 07:39 45.673648 -121.541139 0 634ft 0kts
09-Jan-21 07:40 45.673648 -121.541139 0 634ft 0kts
09-Jan-21 07:41 45.673648 -121.541139 0 634ft 0kts
09-Jan-21 07:42 45.673648 -121.541139 0 634ft 0kts
09-Jan-21 07:43 45.673648 -121.541139 0 634ft 0kts
09-Jan-21 07:44 45.673648 -121.541139 0 634ft 0kts
09-Jan-21 07:45 45.673648 -121.541139 0 634ft 0kts
09-Jan-21 07:46 45.673648 -121.541139 0 634ft 0kts
09-Jan-21 07:47 45.673648 -121.541139 0 634ft 0kts
09-Jan-21 07:48 45.673648 -121.541139 0 634ft 0kts
09-Jan-21 07:49 45.673648 -121.541139 0 634ft 0kts
09-Jan-21 07:50 45.673648 -121.541139 0 634ft 0kts
09-Jan-21 07:51 45.673648 -121.541139 0 634ft 0kts
09-Jan-21 07:52 45.673648 -121.541139 0 634ft 0kts
09-Jan-21 07:53 45.673648 -121.541139 0 634ft 0kts
09-Jan-21 07:54 45.673648 -121.541139 0 634ft 0kts
09-Jan-21 07:55 45.673648 -121.541139 0 634ft 0kts
09-Jan-21 07:56 45.673648 -121.541139 0 634ft 0kts
09-Jan-21 07:57 45.673648 -121.541139 0 634ft 0kts
09-Jan-21 07:58 45.673648 -121.541139 0 634ft 0kts
09-Jan-21 07:59 45.673648 -121.541139 0 634ft 0kts
09-Jan-21 08:00 45.673648 -121.541139 0 634ft 0kts
09-Jan-21 08:01 45.673648 -121.541139 0 634ft 0kts
09-Jan-21 08:02 45.673648 -121.541139 0 634ft 0kts
09-Jan-21 08:03 45.673648 -121.541139 0 634ft 0kts
09-Jan-21 08:04 45.673648 -121.541139 0 634ft 0kts
09-Jan-21 08:05 45.673648 -121.541139 0 634ft 0kts
09-Jan-21 08:06 45.673648 -121.541139 0 634ft 0kts
09-Jan-21 08:07 45.673648 -121.541139 0 634ft 0kts
09-Jan-21 08:08 45.673648 -121.541139 0 634ft 0kts
09-Jan-21 08:09 45.673648 -121.541139 0 634ft 0kts
09-Jan-21 08:10 45.673648 -121.541139 0 634ft 0kts
09-Jan-21 08:11 45.673648 -121.541139 0 634ft 0kts
09-Jan-21 08:12 45.673648 -121.541139 0 634ft 0kts
09-Jan-21 08:13 45.673648 -121.541139 0 634ft 0kts
09-Jan-21 08:14 45.673648 -121.541139 0 634ft 0kts
09-Jan-21 08:15 45.673648 -121.541139 0 634ft 0kts
09-Jan-21 08:16 45.673777 -121.541112 20 634ft 5kts
09-Jan-21 08:17 45.673881 -121.540958 88 634ft 2kts
09-Jan-21 08:18 45.673748 -121.540612 109 634ft 0kts
09-Jan-21 08:19 45.673733 -121.540490 93 634ft 0kts
09-Jan-21 08:20 45.673697 -121.540035 118 634ft 0kts
09-Jan-21 08:21 45.673574 -121.539822 156 634ft 0kts
09-Jan-21 08:22 45.673188 -121.539722 177 634ft 0kts
09-Jan-21 08:23 45.672611 -121.536848 88 634ft 52kts
09-Jan-21 08:24 45.670268 -121.510579 101 1241ft 63kts
09-Jan-21 08:25 45.684451 -121.490785 26 1746ft 76kts
09-Jan-21 08:26 45.704783 -121.483474 76 2260ft 75kts
09-Jan-21 08:27 45.701266 -121.450102 98 2371ft 83kts
09-Jan-21 08:28 45.699686 -121.418446 97 2899ft 81kts
09-Jan-21 08:29 45.696266 -121.385390 98 3504ft 86kts
09-Jan-21 08:30 45.693239 -121.348904 96 3501ft 95kts
09-Jan-21 08:31 45.697929 -121.313484 85 3512ft 94kts
09-Jan-21 08:32 45.700033 -121.275648 85 3499ft 95kts
09-Jan-21 08:33 45.704592 -121.236815 79 3508ft 106kts
09-Jan-21 08:34 45.714718 -121.193687 62 3502ft 119kts
09-Jan-21 08:35 45.730083 -121.151571 62 3500ft 119kts
09-Jan-21 08:36 45.745577 -121.109036 63 3234ft 116kts
09-Jan-21 08:37 45.757882 -121.067219 67 2991ft 107kts
09-Jan-21 08:38 45.767719 -121.033321 67 2989ft 83kts
09-Jan-21 08:39 45.776549 -121.002894 67 3008ft 86kts
09-Jan-21 08:40 45.783165 -120.965471 84 2647ft 104kts
09-Jan-21 08:41 45.785760 -120.927268 84 2596ft 91kts
09-Jan-21 08:42 45.792551 -120.892790 76 2614ft 95kts
09-Jan-21 08:43 45.798992 -120.854537 76 2599ft 99kts
09-Jan-21 08:44 45.805442 -120.816220 76 2590ft 94kts
09-Jan-21 08:45 45.822306 -120.796685 344 2074ft 96kts
09-Jan-21 08:46 45.830862 -120.823720 268 1816ft 85kts
09-Jan-21 08:47 45.830577 -120.853447 269 1937ft 79kts
09-Jan-21 08:48 45.832856 -120.883201 277 2583ft 71kts
09-Jan-21 08:49 45.848435 -120.888878 8 3233ft 75kts
09-Jan-21 08:50 45.864029 -120.871475 83 3836ft 91kts
09-Jan-21 08:51 45.865659 -120.833748 88 4366ft 96kts
09-Jan-21 08:52 45.866368 -120.794629 88 4951ft 107kts
09-Jan-21 08:53 45.867085 -120.748804 88 5378ft 106kts
09-Jan-21 08:55 45.870531 -120.706820 41 5510ft 111kts
09-Jan-21 08:56 45.876303 -120.664638 77 5500ft 109kts
09-Jan-21 08:57 45.883281 -120.621108 76 5503ft 115kts
09-Jan-21 08:58 45.891010 -120.576026 72 5498ft 113kts
09-Jan-21 08:59 45.898995 -120.538633 72 5492ft 90kts
09-Jan-21 09:00 45.908425 -120.506075 76 5502ft 89kts
09-Jan-21 09:01 45.915463 -120.472019 58 5501ft 88kts
09-Jan-21 09:02 45.928243 -120.441397 58 5499ft 89kts
09-Jan-21 09:03 45.942756 -120.410541 51 5522ft 105kts
09-Jan-21 09:04 45.962094 -120.374866 51 5501ft 115kts
09-Jan-21 09:05 45.983015 -120.339703 46 5500ft 116kts
09-Jan-21 09:06 46.003753 -120.307886 46 5295ft 108kts
09-Jan-21 09:07 46.024724 -120.276190 46 4900ft 109kts
09-Jan-21 09:08 46.045828 -120.244280 46 4503ft 110kts
09-Jan-21 09:09 46.067348 -120.211731 46 4114ft 115kts
09-Jan-21 09:09 46.085947 -120.183587 46 3786ft 117kts
09-Jan-21 09:11 46.112557 -120.145672 42 3491ft 108kts
09-Jan-21 09:12 46.134211 -120.117157 42 3499ft 103kts
09-Jan-21 09:12 46.151891 -120.093690 44 3499ft 103kts
09-Jan-21 09:13 46.173274 -120.063488 44 3235ft 112kts
09-Jan-21 09:14 46.195196 -120.032390 47 2766ft 106kts
09-Jan-21 09:15 46.211865 -119.998023 67 2366ft 104kts
09-Jan-21 09:16 46.213743 -119.958022 96 1985ft 93kts
09-Jan-21 09:17 46.211738 -119.920804 90 1689ft 90kts
09-Jan-21 09:18 46.211553 -119.885688 90 1700ft 86kts
09-Jan-21 09:19 46.212640 -119.850776 79 1602ft 94kts
09-Jan-21 09:20 46.213491 -119.816753 93 1015ft 83kts
09-Jan-21 09:21 46.213354 -119.791416 92 699ft 27kts
09-Jan-21 09:22 46.212693 -119.792453 332 699ft 0kts
09-Jan-21 09:23 46.212840 -119.794840 267 699ft 14kts
09-Jan-21 09:24 46.212735 -119.799141 264 699ft 13kts
09-Jan-21 09:25 46.212690 -119.800932 271 699ft 0kts
09-Jan-21 09:26 46.212697 -119.801567 270 699ft 0kts
09-Jan-21 09:27 46.212694 -119.801964 269 699ft 0kts
09-Jan-21 09:28 46.212694 -119.801993 269 699ft 0kts
09-Jan-21 09:29 46.212824 -119.802287 332 699ft 0kts
09-Jan-21 09:30 46.216009 -119.796806 75 751ft 65kts
09-Jan-21 09:31 46.212318 -119.767579 104 1333ft 76kts
09-Jan-21 09:32 46.219888 -119.742623 54 2012ft 71kts
09-Jan-21 09:33 46.229128 -119.715054 73 2521ft 82kts
09-Jan-21 09:34 46.235381 -119.682289 74 2940ft 86kts
09-Jan-21 09:35 46.241645 -119.648875 74 3340ft 86kts

Navigation Log

Ident Type
Flight plan parsing failed, navigation log unavailable